createdAt,value
2023-02-15T00:01:57.273Z,101229.31
2023-02-15T00:03:59.328Z,101224.88
2023-02-15T00:06:02.202Z,101229.31
2023-02-15T00:08:04.570Z,101229.31
2023-02-15T00:10:07.727Z,101236.44
2023-02-15T00:12:11.373Z,101239.13
2023-02-15T00:14:24.798Z,101238.19
2023-02-15T00:16:26.987Z,101235.53
2023-02-15T00:18:29.167Z,101238.19
2023-02-15T00:20:31.368Z,101233.75
2023-02-15T00:22:33.399Z,101229.31
2023-02-15T00:24:35.554Z,101227.53
2023-02-15T00:26:40.368Z,101227.53
2023-02-15T00:28:42.872Z,101229.31
2023-02-15T00:30:44.949Z,101232.84
2023-02-15T00:32:49.292Z,101218.59
2023-02-15T00:34:52.823Z,101222.16
2023-02-15T00:36:55.408Z,101217.72
2023-02-15T00:38:57.612Z,101221.28
2023-02-15T00:41:01.512Z,101211.50
2023-02-15T00:43:05.860Z,101217.72
2023-02-15T00:45:08.300Z,101215.97
2023-02-15T00:47:10.594Z,101214.13
2023-02-15T00:49:12.929Z,101207.03
2023-02-15T00:51:17.862Z,101207.91
2023-02-15T00:53:20.352Z,101218.59
2023-02-15T00:55:22.731Z,101215.03
2023-02-15T00:57:25.155Z,101207.91
2023-02-15T00:59:27.313Z,101207.03
2023-02-15T01:01:29.445Z,101210.56
2023-02-15T01:03:31.564Z,101206.13
2023-02-15T01:05:33.881Z,101203.47
2023-02-15T01:07:38.969Z,101204.34
2023-02-15T01:09:41.057Z,101204.38
2023-02-15T01:11:43.211Z,101196.34
2023-02-15T01:13:45.223Z,101197.25
2023-02-15T01:15:53.702Z,101196.34
2023-02-15T01:17:56.010Z,101193.69
2023-02-15T01:19:57.942Z,101195.47
2023-02-15T01:21:59.829Z,101192.81
2023-02-15T01:24:02.889Z,101184.75
2023-02-15T01:26:05.112Z,101177.66
2023-02-15T01:28:07.167Z,101178.56
2023-02-15T01:30:10.161Z,101181.19
2023-02-15T01:32:12.804Z,101175.88
2023-02-15T01:34:17.799Z,101179.38
2023-02-15T01:36:19.910Z,101179.38
2023-02-15T01:38:22.349Z,101178.47
2023-02-15T01:40:25.441Z,101174.03
2023-02-15T01:42:29.245Z,101174.97
2023-02-15T01:44:53.606Z,101165.13
2023-02-15T01:46:55.529Z,101165.16
2023-02-15T01:49:17.923Z,101169.59
2023-02-15T01:51:24.761Z,101163.34
2023-02-15T01:53:45.926Z,101163.38
2023-02-15T01:56:04.191Z,101160.69
2023-02-15T01:58:07.288Z,101162.41
2023-02-15T02:00:09.959Z,101157.09
2023-02-15T02:02:17.856Z,101157.97
2023-02-15T02:04:40.191Z,101159.72
2023-02-15T02:06:43.087Z,101152.66
2023-02-15T02:08:45.505Z,101152.66
2023-02-15T02:10:47.810Z,101150.84
2023-02-15T02:12:54.416Z,101145.53
2023-02-15T02:14:57.347Z,101147.31
2023-02-15T02:17:18.771Z,101141.97
2023-02-15T02:19:39.125Z,101136.56
2023-02-15T02:21:59.456Z,101134.84
2023-02-15T02:24:31.783Z,101143.69
2023-02-15T02:27:01.906Z,101135.69
2023-02-15T02:29:04.950Z,101131.25
2023-02-15T02:31:44.573Z,101121.44
2023-02-15T02:34:09.119Z,101124.13
2023-02-15T02:36:25.267Z,101122.31
2023-02-15T02:38:54.972Z,101125.00
2023-02-15T02:41:21.809Z,101125.84
2023-02-15T02:43:41.616Z,101123.22
2023-02-15T02:46:15.976Z,101129.41
2023-02-15T02:48:23.924Z,101126.75
2023-02-15T02:50:31.169Z,101131.22
2023-02-15T02:52:48.755Z,101131.19
2023-02-15T02:54:52.167Z,101134.75
2023-02-15T02:56:56.827Z,101135.63
2023-02-15T02:59:02.871Z,101133.84
2023-02-15T03:01:17.011Z,101129.31
2023-02-15T03:03:56.069Z,101131.03
2023-02-15T03:06:03.304Z,101139.94
2023-02-15T03:08:10.976Z,101139.91
2023-02-15T03:10:14.844Z,101139.03
2023-02-15T03:12:23.800Z,101142.50
2023-02-15T03:14:27.387Z,101149.69
2023-02-15T03:16:29.972Z,101146.03
2023-02-15T03:18:37.997Z,101150.44
2023-02-15T03:20:40.456Z,101148.66
2023-02-15T03:23:05.492Z,101162.78
2023-02-15T03:25:16.022Z,101150.34
2023-02-15T03:27:23.875Z,101160.06
2023-02-15T03:29:31.373Z,101160.94
2023-02-15T03:31:39.387Z,101163.59
2023-02-15T03:33:51.006Z,101167.09
2023-02-15T03:36:10.491Z,101168.84
2023-02-15T03:38:18.584Z,101158.16
2023-02-15T03:40:45.948Z,101165.25
2023-02-15T03:42:53.818Z,101164.28
2023-02-15T03:45:12.873Z,101168.69
2023-02-15T03:47:20.662Z,101167.78
2023-02-15T03:49:29.872Z,101167.75
2023-02-15T03:51:36.183Z,101165.00
2023-02-15T03:53:39.857Z,101170.31
2023-02-15T03:55:44.963Z,101165.81
2023-02-15T03:58:06.277Z,101164.91
2023-02-15T04:00:46.698Z,101167.44
2023-02-15T04:03:07.228Z,101170.09
2023-02-15T04:05:09.326Z,101172.75
2023-02-15T04:07:11.455Z,101170.09
2023-02-15T04:09:32.561Z,101167.34
2023-02-15T04:11:34.887Z,101174.44
2023-02-15T04:13:36.771Z,101171.75
2023-02-15T04:15:57.390Z,101175.28
2023-02-15T04:17:59.619Z,101177.91
2023-02-15T04:20:20.536Z,101178.72
2023-02-15T04:22:41.424Z,101181.34
2023-02-15T04:25:02.193Z,101178.63
2023-02-15T04:27:06.162Z,101191.00
2023-02-15T04:29:08.421Z,101188.34
2023-02-15T04:31:10.512Z,101182.91
2023-02-15T04:33:12.821Z,101193.63
2023-02-15T04:35:15.662Z,101192.59
2023-02-15T04:37:17.639Z,101190.91
2023-02-15T04:39:20.199Z,101197.91
2023-02-15T04:41:22.348Z,101193.50
2023-02-15T04:43:24.664Z,101192.50
2023-02-15T04:45:28.397Z,101195.19
2023-02-15T04:47:33.744Z,101194.22
2023-02-15T04:49:35.909Z,101198.63
2023-02-15T04:51:37.988Z,101198.63
2023-02-15T04:53:40.159Z,101191.50
2023-02-15T04:55:43.591Z,101193.28
2023-02-15T04:57:47.024Z,101192.38
2023-02-15T04:59:48.961Z,101197.75
2023-02-15T05:01:50.994Z,101194.97
2023-02-15T05:03:53.156Z,101194.97
2023-02-15T05:05:56.300Z,101199.38
2023-02-15T05:07:58.326Z,101202.91
2023-02-15T05:10:00.435Z,101206.47
2023-02-15T05:12:02.403Z,101204.56
2023-02-15T05:14:05.136Z,101206.34
2023-02-15T05:16:07.208Z,101212.56
2023-02-15T05:18:09.277Z,101207.16
2023-02-15T05:20:11.559Z,101208.00
2023-02-15T05:22:13.766Z,101208.00
2023-02-15T05:24:34.891Z,101211.50
2023-02-15T05:26:55.762Z,101211.47
2023-02-15T05:28:57.735Z,101213.19
2023-02-15T05:31:17.843Z,101212.22
2023-02-15T05:33:21.007Z,101215.81
2023-02-15T05:35:23.217Z,101223.72
2023-02-15T05:37:25.342Z,101225.56
2023-02-15T05:39:27.434Z,101226.22
2023-02-15T05:41:31.357Z,101227.16
2023-02-15T05:43:33.628Z,101235.88
2023-02-15T05:45:35.792Z,101234.94
2023-02-15T05:47:37.774Z,101240.38
2023-02-15T05:49:39.789Z,101244.72
2023-02-15T05:51:41.893Z,101245.59
2023-02-15T05:53:44.239Z,101245.56
2023-02-15T05:55:46.317Z,101241.22
2023-02-15T05:57:49.462Z,101236.84
2023-02-15T05:59:51.468Z,101247.47
2023-02-15T06:01:53.518Z,101253.66
2023-02-15T06:03:56.761Z,101248.41
2023-02-15T06:05:59.018Z,101250.13
2023-02-15T06:08:05.957Z,101253.69
2023-02-15T06:10:08.494Z,101246.38
2023-02-15T06:12:10.521Z,101256.19
2023-02-15T06:14:12.754Z,101254.47
2023-02-15T06:16:16.990Z,101250.97
2023-02-15T06:18:19.324Z,101242.19
2023-02-15T06:20:21.334Z,101245.81
2023-02-15T06:22:23.842Z,101249.25
2023-02-15T06:24:25.879Z,101250.31
2023-02-15T06:26:27.840Z,101255.81
2023-02-15T06:28:29.975Z,101250.69
2023-02-15T06:30:32.728Z,101247.16
2023-02-15T06:32:35.149Z,101247.28
2023-02-15T06:34:37.278Z,101253.63
2023-02-15T06:36:39.384Z,101261.66
2023-02-15T06:38:41.299Z,101260.94
2023-02-15T06:40:43.329Z,101261.91
2023-02-15T06:42:45.974Z,101260.28
2023-02-15T06:44:47.869Z,101261.19
2023-02-15T06:46:49.934Z,101255.97
2023-02-15T06:48:51.821Z,101256.06
2023-02-15T06:50:53.891Z,101264.16
2023-02-15T06:52:59.951Z,101264.31
2023-02-15T06:55:04.947Z,101268.94
2023-02-15T06:57:07.118Z,101275.28
2023-02-15T06:59:09.275Z,101261.09
2023-02-15T07:01:11.418Z,101262.06
2023-02-15T07:03:16.060Z,101270.16
2023-02-15T07:05:18.149Z,101275.59
2023-02-15T07:07:20.288Z,101268.63
2023-02-15T07:09:23.009Z,101269.59
2023-02-15T07:11:46.175Z,101260.75
2023-02-15T07:13:48.957Z,101260.88
2023-02-15T07:15:51.495Z,101260.91
2023-02-15T07:17:53.524Z,101261.03
2023-02-15T07:19:56.266Z,101256.72
2023-02-15T07:21:58.297Z,101262.09
2023-02-15T07:24:00.281Z,101264.78
2023-02-15T07:26:03.361Z,101268.41
2023-02-15T07:28:05.966Z,101266.66
2023-02-15T07:30:13.506Z,101268.44
2023-02-15T07:32:15.957Z,101259.66
2023-02-15T07:34:18.317Z,101262.28
2023-02-15T07:36:20.391Z,101265.00
2023-02-15T07:38:22.814Z,101269.53
2023-02-15T07:40:25.684Z,101269.56
2023-02-15T07:42:27.795Z,101269.59
2023-02-15T07:44:29.931Z,101270.53
2023-02-15T07:46:32.101Z,101255.41
2023-02-15T07:48:35.811Z,101254.53
2023-02-15T07:50:37.921Z,101256.34
2023-02-15T07:52:40.364Z,101258.13
2023-02-15T07:54:42.511Z,101259.94
2023-02-15T07:56:44.724Z,101251.03
2023-02-15T07:58:52.883Z,101251.06
2023-02-15T08:01:01.838Z,101243.91
2023-02-15T08:03:16.126Z,101247.50
2023-02-15T08:05:19.364Z,101243.97
2023-02-15T08:07:21.383Z,101245.75
2023-02-15T08:09:23.732Z,101248.41
2023-02-15T08:11:37.189Z,101243.97
2023-02-15T08:13:55.750Z,101240.41
2023-02-15T08:15:57.886Z,101235.94
2023-02-15T08:18:00.019Z,101247.53
2023-02-15T08:20:02.079Z,101237.72
2023-02-15T08:22:07.333Z,101235.94
2023-02-15T08:24:11.074Z,101244.84
2023-02-15T08:26:13.557Z,101242.16
2023-02-15T08:28:16.158Z,101245.75
2023-02-15T08:30:18.700Z,101235.91
2023-02-15T08:32:20.645Z,101230.53
2023-02-15T08:34:22.790Z,101240.34
2023-02-15T08:36:28.429Z,101236.81
2023-02-15T08:38:33.233Z,101234.09
2023-02-15T08:40:36.131Z,101226.03
2023-02-15T08:42:38.180Z,101219.78
2023-02-15T08:44:40.332Z,101222.44
2023-02-15T08:46:44.652Z,101227.75
2023-02-15T08:48:47.360Z,101220.59
2023-02-15T08:50:51.850Z,101226.88
2023-02-15T08:52:53.962Z,101229.56
2023-02-15T08:54:56.603Z,101233.13
2023-02-15T08:56:58.694Z,101225.97
2023-02-15T08:59:01.455Z,101232.19
2023-02-15T09:01:10.555Z,101232.16
2023-02-15T09:03:12.527Z,101220.50
2023-02-15T09:05:14.822Z,101223.16
2023-02-15T09:07:19.185Z,101229.38
2023-02-15T09:09:23.530Z,101235.66
2023-02-15T09:11:28.885Z,101221.31
2023-02-15T09:13:30.759Z,101223.91
2023-02-15T09:15:32.872Z,101234.59
2023-02-15T09:17:34.950Z,101233.69
2023-02-15T09:19:37.166Z,101222.00
2023-02-15T09:21:39.679Z,101229.16
2023-02-15T09:23:42.911Z,101228.19
2023-02-15T09:25:45.033Z,101231.81
2023-02-15T09:27:47.761Z,101220.13
2023-02-15T09:29:49.913Z,101224.59
2023-02-15T09:31:53.512Z,101220.94
2023-02-15T09:33:56.512Z,101221.72
2023-02-15T09:35:58.632Z,101223.41
2023-02-15T09:38:00.791Z,101219.81
2023-02-15T09:40:02.920Z,101219.78
2023-02-15T09:42:35.007Z,101213.50
2023-02-15T09:44:58.432Z,101226.88
2023-02-15T09:47:32.158Z,101213.38
2023-02-15T09:50:06.927Z,101214.34
2023-02-15T09:52:18.754Z,101206.16
2023-02-15T09:54:42.184Z,101201.69
2023-02-15T09:57:00.638Z,101201.59
2023-02-15T09:59:08.629Z,101205.09
2023-02-15T10:01:36.380Z,101199.56
2023-02-15T10:04:16.342Z,101199.63
2023-02-15T10:06:43.330Z,101200.38
2023-02-15T10:09:35.640Z,101197.59
2023-02-15T10:12:06.952Z,101194.72
2023-02-15T10:14:16.927Z,101190.09
2023-02-15T10:16:42.091Z,101194.50
2023-02-15T10:19:02.597Z,101190.88
2023-02-15T10:21:23.204Z,101189.94
2023-02-15T10:24:02.731Z,101193.41
2023-02-15T10:26:35.849Z,101189.91
2023-02-15T10:28:43.719Z,101188.91
2023-02-15T10:30:52.002Z,101188.84
2023-02-15T10:33:02.151Z,101185.28
2023-02-15T10:35:14.712Z,101184.28
2023-02-15T10:37:54.694Z,101173.53
2023-02-15T10:40:19.377Z,101178.03
2023-02-15T10:42:48.902Z,101174.34
2023-02-15T10:45:10.009Z,101167.97
2023-02-15T10:47:30.669Z,101160.66
2023-02-15T10:49:41.992Z,101155.31
2023-02-15T10:52:11.242Z,101154.41
2023-02-15T10:54:44.413Z,101154.28
2023-02-15T10:57:17.335Z,101147.00
2023-02-15T10:59:54.665Z,101139.81
2023-02-15T11:02:14.291Z,101137.94
2023-02-15T11:04:41.368Z,101132.53
2023-02-15T11:06:52.348Z,101132.50
2023-02-15T11:09:03.266Z,101130.75
2023-02-15T11:11:09.691Z,101132.34
2023-02-15T11:13:18.475Z,101126.03
2023-02-15T11:15:38.416Z,101126.81
2023-02-15T11:17:51.820Z,101123.13
2023-02-15T11:20:09.513Z,101123.03
2023-02-15T11:22:12.793Z,101132.75
2023-02-15T11:24:24.239Z,101117.47
2023-02-15T11:26:36.173Z,101116.53
2023-02-15T11:28:49.358Z,101124.59
2023-02-15T11:30:56.291Z,101125.41
2023-02-15T11:33:03.322Z,101122.72
2023-02-15T11:35:53.523Z,101118.25
2023-02-15T11:38:04.971Z,101113.53
2023-02-15T11:40:20.381Z,101113.38
2023-02-15T11:42:26.881Z,101115.13
2023-02-15T11:44:38.460Z,101108.81
2023-02-15T11:46:40.565Z,101106.97
2023-02-15T11:48:43.566Z,101109.59
2023-02-15T11:50:52.309Z,101105.06
2023-02-15T11:53:00.292Z,101104.13
2023-02-15T11:55:02.829Z,101106.72
2023-02-15T11:57:34.932Z,101107.75
2023-02-15T11:59:40.053Z,101105.84
2023-02-15T12:01:44.734Z,101104.91
2023-02-15T12:03:49.798Z,101112.94
2023-02-15T12:05:58.375Z,101098.53
2023-02-15T12:08:09.594Z,101094.81
2023-02-15T12:10:15.207Z,101092.09
2023-02-15T12:12:29.733Z,101104.56
2023-02-15T12:14:49.876Z,101102.66
2023-02-15T12:16:54.923Z,101096.31
2023-02-15T12:19:00.095Z,101087.25
2023-02-15T12:21:11.503Z,101083.69
2023-02-15T12:23:16.670Z,101090.03
2023-02-15T12:25:39.091Z,101075.69
2023-02-15T12:27:44.287Z,101080.06
2023-02-15T12:29:52.100Z,101073.78
2023-02-15T12:31:55.088Z,101076.38
2023-02-15T12:34:03.005Z,101075.41
2023-02-15T12:36:12.653Z,101068.22
2023-02-15T12:38:14.713Z,101074.50
2023-02-15T12:40:23.401Z,101070.91
2023-02-15T12:42:27.038Z,101069.06
2023-02-15T12:44:38.297Z,101069.97
2023-02-15T12:46:40.921Z,101068.03
2023-02-15T12:48:42.865Z,101065.44
2023-02-15T12:50:55.455Z,101062.81
2023-02-15T12:53:21.391Z,101057.44
2023-02-15T12:55:31.898Z,101056.44
2023-02-15T12:57:35.570Z,101056.28
2023-02-15T12:59:38.858Z,101047.41
2023-02-15T13:01:41.500Z,101052.75
2023-02-15T13:04:07.924Z,101051.09
2023-02-15T13:06:09.901Z,101051.94
2023-02-15T13:08:16.571Z,101050.22
2023-02-15T13:10:32.272Z,101049.41
2023-02-15T13:12:35.271Z,101050.22
2023-02-15T13:14:46.349Z,101053.06
2023-02-15T13:16:52.146Z,101046.66
2023-02-15T13:18:54.616Z,101045.75
2023-02-15T13:20:57.805Z,101043.06
2023-02-15T13:23:08.226Z,101040.38
2023-02-15T13:25:43.834Z,101048.53
2023-02-15T13:27:49.603Z,101049.31
2023-02-15T13:29:59.366Z,101038.56
2023-02-15T13:32:26.360Z,101045.78
2023-02-15T13:34:40.011Z,101035.31
2023-02-15T13:37:00.638Z,101047.25
2023-02-15T13:39:28.287Z,101034.78
2023-02-15T13:42:05.280Z,101041.88
2023-02-15T13:44:20.172Z,101038.56
2023-02-15T13:46:25.217Z,101036.72
2023-02-15T13:48:53.203Z,101043.91
2023-02-15T13:51:16.417Z,101047.59
2023-02-15T13:53:36.333Z,101046.69
2023-02-15T13:55:45.196Z,101053.84
2023-02-15T13:58:05.871Z,101045.78
2023-02-15T14:00:19.800Z,101044.19
2023-02-15T14:02:46.198Z,101041.38
2023-02-15T14:04:54.257Z,101042.22
2023-02-15T14:06:59.214Z,101045.94
2023-02-15T14:09:21.701Z,101040.69
2023-02-15T14:11:23.630Z,101040.69
2023-02-15T14:13:49.799Z,101047.09
2023-02-15T14:16:39.714Z,101040.88
2023-02-15T14:18:50.080Z,101032.72
2023-02-15T14:21:16.482Z,101041.72
2023-02-15T14:23:24.991Z,101045.34
2023-02-15T14:25:38.978Z,101046.16
2023-02-15T14:28:02.198Z,101040.16
2023-02-15T14:30:22.868Z,101041.03
2023-02-15T14:32:36.730Z,101033.00
2023-02-15T14:34:54.041Z,101040.00
2023-02-15T14:36:57.275Z,101037.38
2023-02-15T14:39:02.218Z,101038.38
2023-02-15T14:41:28.770Z,101035.06
2023-02-15T14:43:36.768Z,101039.50
2023-02-15T14:45:56.102Z,101033.31
2023-02-15T14:48:18.730Z,101036.94
2023-02-15T14:50:37.687Z,101036.88
2023-02-15T14:53:23.624Z,101031.59
2023-02-15T14:56:08.473Z,101025.38
2023-02-15T14:58:14.970Z,101032.56
2023-02-15T15:00:34.902Z,101024.50
2023-02-15T15:02:48.427Z,101021.13
2023-02-15T15:05:03.398Z,101022.94
2023-02-15T15:07:18.855Z,101027.47
2023-02-15T15:09:26.783Z,101022.94
2023-02-15T15:11:42.538Z,101031.91
2023-02-15T15:13:59.837Z,101027.59
2023-02-15T15:16:29.958Z,101025.88
2023-02-15T15:18:50.456Z,101025.94
2023-02-15T15:20:52.730Z,101034.00
2023-02-15T15:23:17.388Z,101027.88
2023-02-15T15:25:56.972Z,101032.41
2023-02-15T15:27:59.544Z,101026.03
2023-02-15T15:30:02.544Z,101028.81
2023-02-15T15:32:11.464Z,101035.22
2023-02-15T15:34:22.988Z,101037.97
2023-02-15T15:36:49.090Z,101038.06
2023-02-15T15:39:14.921Z,101045.25
2023-02-15T15:41:16.895Z,101033.56
2023-02-15T15:43:37.298Z,101031.88
2023-02-15T15:45:48.216Z,101037.25
2023-02-15T15:48:05.224Z,101031.13
2023-02-15T15:50:20.731Z,101027.63
2023-02-15T15:52:24.106Z,101028.56
2023-02-15T15:54:28.874Z,101027.69
2023-02-15T15:56:35.016Z,101028.69
2023-02-15T15:58:38.295Z,101035.81
2023-02-15T16:00:52.964Z,101029.75
2023-02-15T16:02:56.675Z,101033.38
2023-02-15T16:05:09.205Z,101033.47
2023-02-15T16:07:29.648Z,101038.03
2023-02-15T16:09:31.610Z,101035.34
2023-02-15T16:11:33.844Z,101040.75
2023-02-15T16:13:36.083Z,101037.22
2023-02-15T16:15:53.508Z,101037.38
2023-02-15T16:17:58.356Z,101042.81
2023-02-15T16:20:06.716Z,101050.13
2023-02-15T16:22:19.078Z,101052.91
2023-02-15T16:24:55.603Z,101042.25
2023-02-15T16:27:00.253Z,101050.31
2023-02-15T16:29:02.626Z,101053.94
2023-02-15T16:31:16.305Z,101049.56
2023-02-15T16:33:19.123Z,101054.09
2023-02-15T16:35:23.741Z,101054.19
2023-02-15T16:37:28.520Z,101060.56
2023-02-15T16:39:34.064Z,101051.72
2023-02-15T16:41:36.819Z,101055.34
2023-02-15T16:43:41.684Z,101053.59
2023-02-15T16:45:44.507Z,101047.38
2023-02-15T16:47:48.824Z,101051.03
2023-02-15T16:49:53.773Z,101055.53
2023-02-15T16:52:02.221Z,101055.66
2023-02-15T16:54:16.533Z,101058.38
2023-02-15T16:56:25.189Z,101057.56
2023-02-15T16:58:31.684Z,101054.00
2023-02-15T17:00:37.892Z,101052.28
2023-02-15T17:02:55.639Z,101058.53
2023-02-15T17:05:07.643Z,101060.44
2023-02-15T17:07:20.104Z,101058.69
2023-02-15T17:09:26.372Z,101061.38
2023-02-15T17:11:37.801Z,101057.84
2023-02-15T17:13:41.004Z,101056.09
2023-02-15T17:15:44.127Z,101050.78
2023-02-15T17:17:47.522Z,101059.75
2023-02-15T17:19:53.633Z,101053.53
2023-02-15T17:21:59.888Z,101055.41
2023-02-15T17:24:05.276Z,101060.78
2023-02-15T17:26:20.068Z,101065.28
2023-02-15T17:28:25.463Z,101059.91
2023-02-15T17:30:33.432Z,101063.53
2023-02-15T17:32:37.430Z,101061.75
2023-02-15T17:34:44.012Z,101061.81
2023-02-15T17:37:00.577Z,101062.69
2023-02-15T17:39:07.615Z,101061.81
2023-02-15T17:41:10.102Z,101060.94
2023-02-15T17:43:12.337Z,101062.75
2023-02-15T17:45:15.516Z,101059.16
2023-02-15T17:47:23.280Z,101063.69
2023-02-15T17:49:38.590Z,101067.28
2023-02-15T17:51:44.215Z,101069.06
2023-02-15T17:54:07.681Z,101063.72
2023-02-15T17:56:12.931Z,101069.97
2023-02-15T17:58:17.223Z,101061.09
2023-02-15T18:00:38.533Z,101070.03
2023-02-15T18:02:59.728Z,101071.81
2023-02-15T18:05:20.351Z,101067.38
2023-02-15T18:07:41.168Z,101069.19
2023-02-15T18:10:02.395Z,101069.19
2023-02-15T18:12:28.034Z,101064.75
2023-02-15T18:14:32.003Z,101062.97
2023-02-15T18:16:38.047Z,101060.28
2023-02-15T18:18:40.806Z,101055.81
2023-02-15T18:20:45.024Z,101058.50
2023-02-15T18:22:48.739Z,101054.06
2023-02-15T18:24:52.490Z,101054.06
2023-02-15T18:26:55.761Z,101053.16
2023-02-15T18:29:08.070Z,101054.94
2023-02-15T18:31:12.015Z,101051.38
2023-02-15T18:33:47.903Z,101063.88
2023-02-15T18:35:52.017Z,101068.31
2023-02-15T18:37:54.741Z,101066.53
2023-02-15T18:39:57.306Z,101067.44
2023-02-15T18:42:01.535Z,101070.13
2023-02-15T18:44:03.769Z,101068.34
2023-02-15T18:46:06.138Z,101079.91
2023-02-15T18:48:10.962Z,101068.34
2023-02-15T18:50:14.271Z,101069.22
2023-02-15T18:52:22.921Z,101064.75
2023-02-15T18:54:26.331Z,101070.09
2023-02-15T18:56:31.744Z,101071.84
2023-02-15T18:58:34.339Z,101070.09
2023-02-15T19:00:37.304Z,101078.09
2023-02-15T19:02:40.714Z,101074.53
2023-02-15T19:04:43.676Z,101070.97
2023-02-15T19:06:48.628Z,101075.41
2023-02-15T19:08:53.319Z,101083.44
2023-02-15T19:10:55.612Z,101078.97
2023-02-15T19:12:58.226Z,101084.31
2023-02-15T19:15:01.304Z,101078.97
2023-02-15T19:17:03.314Z,101073.59
2023-02-15T19:19:07.274Z,101080.72
2023-02-15T19:21:16.012Z,101089.56
2023-02-15T19:23:21.524Z,101084.22
2023-02-15T19:25:30.446Z,101090.44
2023-02-15T19:27:35.296Z,101084.22
2023-02-15T19:29:37.525Z,101087.78
2023-02-15T19:31:39.594Z,101082.44
2023-02-15T19:33:41.853Z,101075.31
2023-02-15T19:35:47.199Z,101072.66
2023-02-15T19:37:57.577Z,101085.09
2023-02-15T19:40:03.965Z,101073.53
2023-02-15T19:42:19.299Z,101079.72
2023-02-15T19:44:21.847Z,101073.50
2023-02-15T19:46:24.387Z,101069.97
2023-02-15T19:48:26.697Z,101069.06
2023-02-15T19:50:31.525Z,101069.94
2023-02-15T19:52:33.735Z,101070.84
2023-02-15T19:54:36.324Z,101064.59
2023-02-15T19:56:38.445Z,101067.25
2023-02-15T19:58:44.215Z,101076.16
2023-02-15T20:00:48.850Z,101068.97
2023-02-15T20:02:52.116Z,101074.31
2023-02-15T20:04:54.429Z,101068.97
2023-02-15T20:06:59.539Z,101079.63
2023-02-15T20:09:04.204Z,101076.09
2023-02-15T20:11:11.153Z,101072.50
2023-02-15T20:13:17.927Z,101066.28
2023-02-15T20:15:23.263Z,101076.91
2023-02-15T20:17:25.342Z,101080.47
2023-02-15T20:19:27.698Z,101076.88
2023-02-15T20:21:30.105Z,101077.72
2023-02-15T20:23:35.942Z,101072.38
2023-02-15T20:25:38.231Z,101067.97
2023-02-15T20:27:42.504Z,101063.53
2023-02-15T20:29:44.901Z,101068.81
2023-02-15T20:31:47.283Z,101065.28
2023-02-15T20:33:49.885Z,101060.81
2023-02-15T20:35:52.552Z,101063.47
2023-02-15T20:37:57.312Z,101059.03
2023-02-15T20:39:59.591Z,101054.53
2023-02-15T20:42:02.219Z,101050.06
2023-02-15T20:44:18.111Z,101058.06
2023-02-15T20:46:20.452Z,101051.88
2023-02-15T20:48:22.962Z,101048.31
2023-02-15T20:50:29.122Z,101046.50
2023-02-15T20:52:31.984Z,101044.75
2023-02-15T20:54:36.222Z,101058.91
2023-02-15T20:56:38.583Z,101058.88
2023-02-15T20:58:42.055Z,101051.81
2023-02-15T21:00:44.137Z,101050.84
2023-02-15T21:02:51.528Z,101049.06
2023-02-15T21:04:55.757Z,101047.19
2023-02-15T21:06:58.043Z,101055.19
2023-02-15T21:09:02.117Z,101043.56
2023-02-15T21:11:04.532Z,101045.28
2023-02-15T21:13:15.768Z,101044.44
2023-02-15T21:15:41.948Z,101039.03
2023-02-15T21:17:44.234Z,101040.75
2023-02-15T21:19:46.595Z,101035.47
2023-02-15T21:21:53.961Z,101046.09
2023-02-15T21:23:56.092Z,101032.69
2023-02-15T21:25:58.381Z,101046.75
2023-02-15T21:28:00.424Z,101037.88
2023-02-15T21:30:02.713Z,101038.81
2023-02-15T21:32:05.056Z,101041.53
2023-02-15T21:34:09.451Z,101039.78
2023-02-15T21:36:24.076Z,101037.09
2023-02-15T21:38:31.356Z,101035.28
2023-02-15T21:40:33.977Z,101033.41
2023-02-15T21:42:54.933Z,101027.22
2023-02-15T21:45:15.804Z,101039.72
2023-02-15T21:47:40.549Z,101031.72
2023-02-15T21:49:42.399Z,101034.44
2023-02-15T21:52:13.547Z,101033.50
2023-02-15T21:54:18.900Z,101029.06
2023-02-15T21:56:22.275Z,101026.41
2023-02-15T21:58:26.850Z,101030.00
2023-02-15T22:00:29.976Z,101031.81
2023-02-15T22:02:32.372Z,101031.78
2023-02-15T22:04:34.357Z,101033.41
2023-02-15T22:06:36.462Z,101032.63
2023-02-15T22:08:38.550Z,101034.41
2023-02-15T22:10:41.783Z,101027.34
2023-02-15T22:12:44.570Z,101036.25
2023-02-15T22:14:52.537Z,101038.91
2023-02-15T22:16:54.606Z,101034.53
2023-02-15T22:18:56.571Z,101033.63
2023-02-15T22:20:59.994Z,101037.19
2023-02-15T22:23:02.316Z,101027.44
2023-02-15T22:25:04.909Z,101025.69
2023-02-15T22:27:08.017Z,101027.44
2023-02-15T22:29:19.156Z,101031.78
2023-02-15T22:31:23.048Z,101033.53
2023-02-15T22:33:31.386Z,101026.38
2023-02-15T22:35:36.164Z,101029.09
2023-02-15T22:37:38.376Z,101030.00
2023-02-15T22:39:40.899Z,101032.63
2023-02-15T22:41:43.078Z,101045.94
2023-02-15T22:43:46.507Z,101045.00
2023-02-15T22:45:49.193Z,101041.44
2023-02-15T22:47:56.542Z,101045.88
2023-02-15T22:50:02.429Z,101041.47
2023-02-15T22:52:06.647Z,101044.09
2023-02-15T22:54:08.785Z,101045.84
2023-02-15T22:56:18.739Z,101045.00
2023-02-15T22:58:24.864Z,101038.81
2023-02-15T23:00:30.742Z,101053.00
2023-02-15T23:02:36.025Z,101046.78
2023-02-15T23:04:38.219Z,101046.88
2023-02-15T23:06:40.251Z,101056.56
2023-02-15T23:08:42.596Z,101046.88
2023-02-15T23:10:48.939Z,101053.06
2023-02-15T23:13:15.521Z,101050.38
2023-02-15T23:15:17.687Z,101045.94
2023-02-15T23:17:20.618Z,101049.47
2023-02-15T23:19:23.013Z,101042.34
2023-02-15T23:21:30.690Z,101042.22
2023-02-15T23:23:37.225Z,101042.25
2023-02-15T23:25:39.680Z,101038.66
2023-02-15T23:27:59.759Z,101036.94
2023-02-15T23:30:04.141Z,101041.34
2023-02-15T23:32:12.661Z,101036.84
2023-02-15T23:34:17.941Z,101027.00
2023-02-15T23:36:28.291Z,101024.34
2023-02-15T23:38:31.434Z,101030.44
2023-02-15T23:40:52.244Z,101035.72
2023-02-15T23:42:54.502Z,101022.38
2023-02-15T23:44:57.260Z,101032.91
2023-02-15T23:46:59.834Z,101029.44
2023-02-15T23:49:02.175Z,101027.69
2023-02-15T23:51:10.995Z,101024.94
2023-02-15T23:53:13.485Z,101024.84
2023-02-15T23:55:15.601Z,101023.03
2023-02-15T23:57:17.743Z,101015.97
2023-02-15T23:59:24.613Z,101027.53
